createdAt,value
2019-02-07T00:01:07.770Z,9.97
2019-02-07T00:03:37.609Z,9.53
2019-02-07T00:06:07.444Z,10.60
2019-02-07T00:08:37.834Z,11.40
2019-02-07T00:11:07.505Z,11.13
2019-02-07T00:13:37.366Z,10.23
2019-02-07T00:16:07.015Z,10.70
2019-02-07T00:18:36.746Z,10.63
2019-02-07T00:21:06.804Z,10.97
2019-02-07T00:23:36.545Z,10.30
2019-02-07T00:26:06.257Z,10.50
2019-02-07T00:28:35.977Z,10.57
2019-02-07T00:31:05.811Z,11.30
2019-02-07T00:33:35.983Z,10.33
2019-02-07T00:36:05.898Z,10.40
2019-02-07T00:38:35.517Z,9.77
2019-02-07T00:41:05.451Z,10.50
2019-02-07T00:43:35.168Z,9.80
2019-02-07T00:46:05.584Z,10.30
2019-02-07T00:48:35.206Z,9.70
2019-02-07T00:51:05.125Z,10.13
2019-02-07T00:53:34.766Z,9.10
2019-02-07T00:56:04.511Z,9.83
2019-02-07T00:58:34.287Z,8.60
2019-02-07T01:01:03.976Z,10.00
2019-02-07T01:03:33.741Z,9.47
2019-02-07T01:06:03.390Z,9.87
2019-02-07T01:08:33.108Z,9.37
2019-02-07T01:11:03.157Z,9.53
2019-02-07T01:13:32.812Z,9.57
2019-02-07T01:16:02.982Z,9.50
2019-02-07T01:18:32.594Z,8.50
2019-02-07T01:21:02.304Z,9.17
2019-02-07T01:23:32.063Z,9.60
2019-02-07T01:26:02.149Z,10.17
2019-02-07T01:28:31.898Z,9.10
2019-02-07T01:31:01.916Z,8.60
2019-02-07T01:33:31.568Z,9.37
2019-02-07T01:36:01.093Z,10.37
2019-02-07T01:38:30.788Z,10.00
2019-02-07T01:41:00.475Z,8.77
2019-02-07T01:43:30.405Z,9.23
2019-02-07T01:46:00.118Z,9.10
2019-02-07T01:48:29.878Z,9.20
2019-02-07T01:50:59.630Z,8.80
2019-02-07T01:53:29.201Z,8.60
2019-02-07T01:55:59.143Z,9.20
2019-02-07T01:58:28.862Z,10.50
2019-02-07T02:00:58.441Z,10.33
2019-02-07T02:03:28.179Z,9.07
2019-02-07T02:05:57.819Z,9.00
2019-02-07T02:08:27.549Z,9.60
2019-02-07T02:10:57.304Z,9.60
2019-02-07T02:13:26.952Z,9.90
2019-02-07T02:15:56.587Z,9.30
2019-02-07T02:18:26.205Z,9.03
2019-02-07T02:20:56.108Z,9.50
2019-02-07T02:23:25.809Z,9.33
2019-02-07T02:25:55.623Z,10.67
2019-02-07T02:28:25.739Z,9.13
2019-02-07T02:30:55.468Z,9.13
2019-02-07T02:33:25.240Z,8.97
2019-02-07T02:35:54.791Z,9.80
2019-02-07T02:38:24.619Z,9.87
2019-02-07T02:40:54.558Z,9.00
2019-02-07T02:43:24.574Z,9.70
2019-02-07T02:45:54.361Z,8.90
2019-02-07T02:48:24.387Z,9.50
2019-02-07T02:50:53.904Z,9.00
2019-02-07T02:53:23.541Z,10.00
2019-02-07T02:55:53.354Z,9.50
2019-02-07T02:58:23.206Z,8.43
2019-02-07T03:00:57.426Z,8.60
2019-02-07T03:03:34.793Z,10.87
2019-02-07T03:06:24.420Z,8.73
2019-02-07T03:09:11.877Z,9.40
2019-02-07T03:11:59.476Z,9.60
2019-02-07T03:14:33.349Z,8.27
2019-02-07T03:17:07.137Z,8.73
2019-02-07T03:19:41.190Z,9.60
2019-02-07T03:22:14.871Z,8.10
2019-02-07T03:24:56.471Z,10.20
2019-02-07T03:27:27.629Z,10.33
2019-02-07T03:33:04.917Z,8.73
2019-02-07T03:35:51.981Z,9.17
2019-02-07T03:38:23.172Z,8.40
2019-02-07T03:40:54.544Z,8.67
2019-02-07T03:43:32.362Z,9.07
2019-02-07T03:46:06.186Z,9.10
2019-02-07T03:48:46.177Z,9.47
2019-02-07T03:51:20.313Z,8.70
2019-02-07T03:53:56.953Z,8.00
2019-02-07T03:56:31.739Z,8.73
2019-02-07T03:59:01.026Z,9.60
2019-02-07T04:01:32.581Z,8.80
2019-02-07T04:04:13.876Z,8.73
2019-02-07T04:06:47.830Z,8.23
2019-02-07T04:09:18.984Z,9.77
2019-02-07T04:11:56.267Z,8.23
2019-02-07T04:14:42.791Z,8.23
2019-02-07T04:17:30.097Z,10.00
2019-02-07T04:20:15.983Z,8.83
2019-02-07T04:23:02.373Z,9.07
2019-02-07T04:25:45.877Z,9.30
2019-02-07T04:28:25.645Z,9.03
2019-02-07T04:30:59.759Z,9.43
2019-02-07T04:33:30.950Z,9.17
2019-02-07T04:36:02.110Z,10.10
2019-02-07T04:38:36.214Z,9.67
2019-02-07T04:41:19.244Z,9.17
2019-02-07T04:43:53.381Z,8.67
2019-02-07T04:46:27.576Z,9.27
2019-02-07T04:48:58.804Z,7.70
2019-02-07T04:51:32.675Z,8.70
2019-02-07T04:54:09.535Z,9.47
2019-02-07T04:56:40.721Z,10.43
2019-02-07T04:59:11.878Z,9.27
2019-02-07T05:01:45.661Z,9.17
2019-02-07T05:04:34.649Z,8.60
2019-02-07T05:07:08.719Z,10.00
2019-02-07T05:09:45.310Z,8.43
2019-02-07T05:12:22.225Z,9.13
2019-02-07T05:15:08.783Z,9.07
2019-02-07T05:17:42.994Z,9.80
2019-02-07T05:20:30.413Z,9.20
2019-02-07T05:23:07.694Z,8.67
2019-02-07T05:25:53.609Z,9.30
2019-02-07T05:28:40.883Z,10.03
2019-02-07T05:31:12.060Z,9.50
2019-02-07T05:33:47.738Z,8.60
2019-02-07T05:36:18.969Z,9.70
2019-02-07T05:38:50.134Z,9.90
2019-02-07T05:41:19.823Z,9.03
2019-02-07T05:43:56.819Z,8.53
2019-02-07T05:46:29.191Z,9.80
2019-02-07T05:49:18.668Z,9.10
2019-02-07T05:51:49.844Z,8.70
2019-02-07T05:54:32.936Z,9.37
2019-02-07T05:57:02.371Z,9.30
2019-02-07T05:59:33.518Z,7.87
2019-02-07T06:02:20.516Z,8.60
2019-02-07T06:04:57.339Z,8.70
2019-02-07T06:07:45.266Z,8.27
2019-02-07T06:10:22.376Z,8.57
2019-02-07T06:13:05.329Z,9.60
2019-02-07T06:15:39.199Z,9.27
2019-02-07T06:18:09.198Z,7.83
2019-02-07T06:20:45.872Z,9.03
2019-02-07T06:23:17.037Z,8.93
2019-02-07T06:26:04.308Z,10.37
2019-02-07T06:28:41.712Z,9.10
2019-02-07T06:31:21.904Z,9.37
2019-02-07T06:33:53.079Z,7.90
2019-02-07T06:36:28.072Z,9.33
2019-02-07T06:38:57.350Z,7.90
2019-02-07T06:41:28.500Z,7.83
2019-02-07T06:44:22.415Z,8.77
2019-02-07T06:47:13.573Z,8.90
2019-02-07T06:49:50.817Z,8.37
2019-02-07T06:52:29.105Z,8.87
2019-02-07T06:55:02.902Z,8.40
2019-02-07T06:57:42.803Z,9.30
2019-02-07T07:00:20.798Z,9.60
2019-02-07T07:03:03.892Z,9.17
2019-02-07T07:05:38.022Z,9.20
2019-02-07T07:08:15.068Z,9.10
2019-02-07T07:10:51.933Z,9.50
2019-02-07T07:13:32.059Z,9.67
2019-02-07T07:16:09.247Z,9.87
2019-02-07T07:18:56.429Z,10.10
2019-02-07T07:21:33.471Z,10.40
2019-02-07T07:24:18.010Z,11.63
2019-02-07T07:26:58.125Z,11.90
2019-02-07T07:29:31.998Z,9.87
2019-02-07T07:32:08.620Z,11.50
2019-02-07T07:34:55.827Z,11.20
2019-02-07T07:37:39.082Z,9.97
2019-02-07T07:40:30.227Z,12.30
2019-02-07T07:43:00.211Z,10.87
2019-02-07T07:45:43.141Z,10.87
2019-02-07T07:48:18.665Z,11.23
2019-02-07T07:51:01.758Z,10.73
2019-02-07T07:53:32.935Z,10.60
2019-02-07T07:56:04.943Z,11.67
2019-02-07T07:58:36.113Z,11.60
2019-02-07T08:01:24.735Z,11.70
2019-02-07T08:04:11.692Z,10.47
2019-02-07T08:06:42.956Z,12.67
2019-02-07T08:09:20.116Z,11.77
2019-02-07T08:11:54.281Z,10.77
2019-02-07T08:14:31.420Z,12.27
2019-02-07T08:17:08.774Z,12.37
2019-02-07T08:19:47.389Z,11.93
2019-02-07T08:22:18.556Z,12.60
2019-02-07T08:24:49.786Z,12.77
2019-02-07T08:27:20.940Z,11.17
2019-02-07T08:29:55.203Z,13.37
2019-02-07T08:32:38.251Z,11.53
2019-02-07T08:35:26.114Z,12.33
2019-02-07T08:38:15.301Z,13.33
2019-02-07T08:41:02.296Z,12.87
2019-02-07T08:43:33.455Z,12.10
2019-02-07T08:46:20.363Z,14.47
2019-02-07T08:49:01.087Z,13.03
2019-02-07T08:51:48.389Z,13.30
2019-02-07T08:57:00.885Z,13.50
2019-02-07T08:59:32.040Z,13.60
2019-02-07T09:02:05.968Z,13.20
2019-02-07T09:04:52.495Z,13.30
2019-02-07T09:07:32.294Z,13.70
2019-02-07T09:10:03.487Z,13.00
2019-02-07T09:12:50.745Z,12.97
2019-02-07T09:15:28.048Z,12.97
2019-02-07T09:18:15.465Z,13.07
2019-02-07T09:21:02.818Z,13.83
2019-02-07T09:23:32.125Z,13.20
2019-02-07T09:26:11.918Z,14.60
2019-02-07T09:28:46.085Z,13.10
2019-02-07T09:31:17.254Z,12.70
2019-02-07T09:34:04.829Z,13.60
2019-02-07T09:36:38.770Z,13.47
2019-02-07T09:39:11.248Z,13.10
2019-02-07T09:41:57.741Z,12.37
2019-02-07T09:44:45.234Z,12.60
2019-02-07T09:47:23.520Z,12.83
2019-02-07T09:50:00.459Z,12.03
2019-02-07T09:52:31.615Z,12.63
2019-02-07T09:55:08.543Z,13.43
2019-02-07T09:57:48.395Z,13.27
2019-02-07T10:00:20.289Z,11.90
2019-02-07T10:03:06.438Z,14.03
2019-02-07T10:05:49.982Z,13.50
2019-02-07T10:08:25.021Z,13.90
2019-02-07T10:10:56.233Z,14.07
2019-02-07T10:13:36.607Z,14.30
2019-02-07T10:16:13.740Z,13.70
2019-02-07T10:18:44.909Z,13.70
2019-02-07T10:21:21.964Z,14.47
2019-02-07T10:23:56.471Z,12.90
2019-02-07T10:26:31.542Z,12.77
2019-02-07T10:29:07.290Z,14.40
2019-02-07T10:31:48.198Z,14.40
2019-02-07T10:34:30.938Z,13.83
2019-02-07T10:37:02.084Z,14.10
2019-02-07T10:39:34.090Z,14.77
2019-02-07T10:42:14.528Z,15.17
2019-02-07T10:44:43.817Z,14.03
2019-02-07T10:47:17.715Z,13.07
2019-02-07T10:49:58.982Z,14.47
2019-02-07T10:52:27.605Z,12.47
2019-02-07T10:54:58.769Z,12.33
2019-02-07T10:57:41.488Z,13.70
2019-02-07T11:00:35.753Z,12.90
2019-02-07T11:03:16.353Z,11.73
2019-02-07T11:06:03.756Z,13.27
2019-02-07T11:08:37.651Z,12.07
2019-02-07T11:11:21.072Z,10.47
2019-02-07T11:13:55.020Z,13.03
2019-02-07T11:16:42.922Z,10.90
2019-02-07T11:19:32.530Z,11.70
2019-02-07T11:22:16.075Z,10.53
2019-02-07T11:25:03.780Z,10.03
2019-02-07T11:27:33.087Z,10.47
2019-02-07T11:30:19.031Z,9.17
2019-02-07T11:33:06.661Z,10.50
2019-02-07T11:35:40.542Z,11.47
2019-02-07T11:38:24.249Z,9.80
2019-02-07T11:40:58.223Z,9.27
2019-02-07T11:43:35.307Z,8.77
2019-02-07T11:46:21.439Z,9.17
2019-02-07T11:49:06.991Z,8.03
2019-02-07T11:51:37.460Z,8.30
2019-02-07T11:54:20.753Z,8.10
2019-02-07T11:57:08.448Z,8.37
2019-02-07T11:59:56.254Z,8.63
2019-02-07T12:02:43.717Z,7.37
2019-02-07T12:05:24.090Z,8.37
2019-02-07T12:07:55.522Z,8.63
2019-02-07T12:10:26.661Z,7.87
2019-02-07T12:13:16.313Z,8.77
2019-02-07T12:15:56.570Z,8.50
2019-02-07T12:18:39.904Z,7.47
2019-02-07T12:21:13.496Z,7.97
2019-02-07T12:23:47.495Z,7.70
2019-02-07T12:26:19.023Z,7.97
2019-02-07T12:28:50.273Z,7.70
2019-02-07T12:31:30.670Z,8.60
2019-02-07T12:33:59.974Z,7.30
2019-02-07T12:36:31.995Z,7.93
2019-02-07T12:39:10.448Z,7.40
2019-02-07T12:41:57.761Z,8.50
2019-02-07T12:44:47.269Z,7.57
2019-02-07T12:47:16.747Z,7.90
2019-02-07T12:49:56.395Z,7.47
2019-02-07T12:52:36.471Z,8.00
2019-02-07T12:55:10.936Z,7.00
2019-02-07T12:57:51.143Z,7.30
2019-02-07T13:00:37.227Z,6.97
2019-02-07T13:03:17.820Z,7.93
2019-02-07T13:05:49.377Z,8.50
2019-02-07T13:08:29.175Z,7.13
2019-02-07T13:11:12.523Z,6.53
2019-02-07T13:13:43.686Z,7.97
2019-02-07T13:16:14.914Z,7.07
2019-02-07T13:18:58.297Z,7.53
2019-02-07T13:21:35.279Z,8.83
2019-02-07T13:24:06.614Z,8.03
2019-02-07T13:26:38.683Z,8.20
2019-02-07T13:29:15.721Z,8.60
2019-02-07T13:31:55.639Z,7.70
2019-02-07T13:34:43.157Z,9.53
2019-02-07T13:37:23.254Z,9.40
2019-02-07T13:40:10.311Z,8.60
2019-02-07T13:43:00.148Z,8.70
2019-02-07T13:45:34.190Z,8.23
2019-02-07T13:48:09.334Z,8.73
2019-02-07T13:50:40.939Z,9.80
2019-02-07T13:53:19.340Z,9.77
2019-02-07T13:56:05.426Z,9.37
2019-02-07T13:58:36.577Z,8.00
2019-02-07T14:01:07.944Z,9.30
2019-02-07T14:03:49.164Z,8.50
2019-02-07T14:06:20.582Z,9.17
2019-02-07T14:08:54.493Z,9.27
2019-02-07T14:11:43.755Z,10.53
2019-02-07T14:14:26.586Z,9.43
2019-02-07T14:16:57.756Z,9.90
2019-02-07T14:19:29.771Z,9.20
2019-02-07T14:22:02.360Z,9.87
2019-02-07T14:24:33.506Z,9.23
2019-02-07T14:27:21.439Z,9.90
2019-02-07T14:30:07.389Z,10.57
2019-02-07T14:32:56.736Z,9.07
2019-02-07T14:35:33.828Z,9.80
2019-02-07T14:38:11.155Z,10.87
2019-02-07T14:40:40.470Z,11.30
2019-02-07T14:43:12.018Z,11.50
2019-02-07T14:45:43.321Z,11.40
2019-02-07T14:48:14.619Z,10.67
2019-02-07T14:50:44.517Z,9.33
2019-02-07T14:53:14.132Z,9.77
2019-02-07T14:55:43.653Z,10.57
2019-02-07T14:58:13.162Z,9.00
2019-02-07T15:00:43.193Z,9.37
2019-02-07T15:03:12.874Z,8.93
2019-02-07T15:05:42.879Z,9.03
2019-02-07T15:08:12.396Z,8.17
2019-02-07T15:10:42.109Z,9.47
2019-02-07T15:13:11.690Z,8.63
2019-02-07T15:15:41.196Z,8.43
2019-02-07T15:18:10.856Z,8.60
2019-02-07T15:20:40.846Z,8.50
2019-02-07T15:23:10.440Z,7.80
2019-02-07T15:25:39.978Z,8.60
2019-02-07T15:28:09.499Z,7.73
2019-02-07T15:30:39.009Z,7.70
2019-02-07T15:33:08.528Z,8.20
2019-02-07T15:35:44.334Z,8.40
2019-02-07T15:38:13.857Z,8.40
2019-02-07T15:40:44.226Z,7.60
2019-02-07T15:43:13.898Z,8.83
2019-02-07T15:45:43.461Z,7.80
2019-02-07T15:48:13.046Z,7.90
2019-02-07T15:50:42.654Z,7.97
2019-02-07T15:53:12.900Z,8.77
2019-02-07T15:55:42.427Z,8.63
2019-02-07T15:58:11.928Z,8.77
2019-02-07T16:00:48.607Z,8.80
2019-02-07T16:03:35.233Z,8.00
2019-02-07T16:06:06.473Z,8.03
2019-02-07T16:08:36.116Z,9.20
2019-02-07T16:11:06.849Z,8.80
2019-02-07T16:13:36.643Z,9.00
2019-02-07T16:16:06.314Z,8.30
2019-02-07T16:18:35.841Z,9.13
2019-02-07T16:21:05.856Z,9.50
2019-02-07T16:23:35.585Z,10.27
2019-02-07T16:26:05.498Z,9.10
2019-02-07T16:28:35.012Z,9.90
2019-02-07T16:31:05.687Z,9.17
2019-02-07T16:33:35.198Z,10.47
2019-02-07T16:36:05.750Z,8.87
2019-02-07T16:38:35.263Z,9.13
2019-02-07T16:41:05.025Z,11.00
2019-02-07T16:43:34.691Z,9.80
2019-02-07T16:46:04.815Z,10.77
2019-02-07T16:48:34.341Z,9.70
2019-02-07T16:51:04.241Z,10.33
2019-02-07T16:53:33.754Z,10.47
2019-02-07T16:56:03.645Z,8.77
2019-02-07T16:58:33.437Z,10.00
2019-02-07T17:01:03.205Z,11.47
2019-02-07T17:03:32.718Z,11.00
2019-02-07T17:06:02.482Z,10.73
2019-02-07T17:08:32.061Z,10.97
2019-02-07T17:11:02.037Z,10.50
2019-02-07T17:13:31.724Z,10.47
2019-02-07T17:16:01.518Z,11.37
2019-02-07T17:18:31.015Z,10.60
2019-02-07T17:21:11.200Z,11.50
2019-02-07T17:23:31.922Z,11.70
2019-02-07T17:26:01.516Z,11.60
2019-02-07T17:28:31.286Z,11.60
2019-02-07T17:31:00.812Z,11.40
2019-02-07T17:33:30.410Z,10.10
2019-02-07T17:35:59.930Z,11.60
2019-02-07T17:38:29.901Z,10.23
2019-02-07T17:40:59.428Z,11.37
2019-02-07T17:43:28.951Z,10.50
2019-02-07T17:45:58.462Z,10.60
2019-02-07T17:48:27.979Z,11.07
2019-02-07T17:50:57.587Z,12.40
2019-02-07T17:53:27.109Z,10.47
2019-02-07T17:55:56.787Z,11.80
2019-02-07T17:58:26.290Z,12.93
2019-02-07T18:01:04.793Z,12.60
2019-02-07T18:03:34.382Z,12.47
2019-02-07T18:06:04.764Z,12.50
2019-02-07T18:08:34.626Z,13.03
2019-02-07T18:11:04.602Z,12.07
2019-02-07T18:13:34.286Z,13.03
2019-02-07T18:16:04.140Z,13.63
2019-02-07T18:18:33.671Z,13.13
2019-02-07T18:21:03.252Z,12.60
2019-02-07T18:23:33.131Z,11.93
2019-02-07T18:26:02.712Z,13.50
2019-02-07T18:28:32.246Z,15.97
2019-02-07T18:31:01.773Z,15.33
2019-02-07T18:33:31.363Z,15.60
2019-02-07T18:36:00.940Z,13.37
2019-02-07T18:38:30.643Z,12.70
2019-02-07T18:41:00.188Z,13.70
2019-02-07T18:43:29.704Z,13.30
2019-02-07T18:45:59.231Z,13.27
2019-02-07T18:48:28.746Z,13.60
2019-02-07T18:50:58.288Z,14.00
2019-02-07T18:53:28.181Z,15.43
2019-02-07T18:55:57.809Z,15.70
2019-02-07T18:58:27.327Z,13.60
2019-02-07T19:00:56.834Z,15.20
2019-02-07T19:03:26.362Z,13.60
2019-02-07T19:05:55.881Z,15.13
2019-02-07T19:08:25.691Z,15.57
2019-02-07T19:10:55.334Z,14.37
2019-02-07T19:13:24.866Z,14.50
2019-02-07T19:15:58.682Z,14.23
2019-02-07T19:18:28.201Z,15.40
2019-02-07T19:20:57.739Z,16.10
2019-02-07T19:23:27.281Z,15.97
2019-02-07T19:25:56.802Z,15.00
2019-02-07T19:28:26.314Z,15.70
2019-02-07T19:30:55.839Z,16.73
2019-02-07T19:33:25.353Z,15.83
2019-02-07T19:35:54.906Z,16.63
2019-02-07T19:38:24.598Z,15.87
2019-02-07T19:40:54.111Z,16.23
2019-02-07T19:43:23.635Z,17.27
2019-02-07T19:45:53.151Z,16.43
2019-02-07T19:48:22.688Z,15.57
2019-02-07T19:50:52.203Z,17.17
2019-02-07T19:53:22.008Z,17.00
2019-02-07T19:55:51.793Z,16.87
2019-02-07T19:58:21.321Z,18.00
2019-02-07T20:00:50.924Z,18.07
2019-02-07T20:03:20.559Z,18.30
2019-02-07T20:05:50.107Z,17.60
2019-02-07T20:08:20.000Z,17.33
2019-02-07T20:10:49.637Z,15.13
2019-02-07T20:13:19.152Z,18.07
2019-02-07T20:15:48.744Z,18.00
2019-02-07T20:18:18.279Z,18.13
2019-02-07T20:20:48.076Z,18.30
2019-02-07T20:23:17.875Z,26.90
2019-02-07T20:25:47.483Z,27.53
2019-02-07T20:28:17.006Z,22.23
2019-02-07T20:33:16.247Z,20.97
2019-02-07T20:35:45.765Z,20.90
2019-02-07T20:38:15.293Z,22.70
2019-02-07T20:40:45.093Z,20.07
2019-02-07T20:43:14.619Z,19.30
2019-02-07T20:45:44.143Z,18.47
2019-02-07T20:48:13.836Z,20.40
2019-02-07T20:50:43.359Z,19.90
2019-02-07T20:53:14.519Z,18.37
2019-02-07T20:55:44.120Z,19.20
2019-02-07T20:58:13.795Z,18.37
2019-02-07T21:00:43.514Z,18.00
2019-02-07T21:03:13.111Z,19.20
2019-02-07T21:05:42.649Z,18.70
2019-02-07T21:08:12.175Z,20.13
2019-02-07T21:10:41.688Z,18.80
2019-02-07T21:13:11.393Z,19.07
2019-02-07T21:15:40.960Z,18.40
2019-02-07T21:18:10.623Z,18.17
2019-02-07T21:20:40.160Z,18.17
2019-02-07T21:23:09.875Z,17.27
2019-02-07T21:25:51.292Z,18.43
2019-02-07T21:28:20.892Z,18.40
2019-02-07T21:30:50.418Z,19.53
2019-02-07T21:33:19.971Z,18.20
2019-02-07T21:35:49.578Z,16.77
2019-02-07T21:38:19.140Z,19.07
2019-02-07T21:40:48.672Z,18.13
2019-02-07T21:43:18.189Z,19.77
2019-02-07T21:45:47.949Z,18.23
2019-02-07T21:48:17.451Z,18.13
2019-02-07T21:50:46.974Z,18.27
2019-02-07T21:53:17.140Z,18.33
2019-02-07T21:55:46.653Z,17.20
2019-02-07T21:58:16.683Z,18.47
2019-02-07T22:00:47.769Z,17.47
2019-02-07T22:03:17.293Z,16.80
2019-02-07T22:05:46.987Z,17.43
2019-02-07T22:08:16.840Z,18.47
2019-02-07T22:10:46.385Z,17.50
2019-02-07T22:13:16.025Z,19.43
2019-02-07T22:15:45.501Z,19.00
2019-02-07T22:18:15.043Z,17.63
2019-02-07T22:20:44.609Z,20.20
2019-02-07T22:23:14.305Z,20.17
2019-02-07T22:25:43.805Z,18.90
2019-02-07T22:28:13.773Z,19.67
2019-02-07T22:30:43.302Z,18.53
2019-02-07T22:33:13.205Z,18.70
2019-02-07T22:35:42.749Z,18.57
2019-02-07T22:38:12.406Z,19.43
2019-02-07T22:40:41.912Z,19.30
2019-02-07T22:43:11.807Z,20.10
2019-02-07T22:45:41.287Z,19.63
2019-02-07T22:48:10.895Z,18.43
2019-02-07T22:50:40.483Z,19.87
2019-02-07T22:53:10.180Z,20.10
2019-02-07T22:55:39.739Z,19.20
2019-02-07T22:58:09.762Z,18.50
2019-02-07T23:00:44.310Z,18.83
2019-02-07T23:03:19.634Z,21.10
2019-02-07T23:05:49.320Z,20.13
2019-02-07T23:08:19.167Z,19.70
2019-02-07T23:10:49.031Z,18.77
2019-02-07T23:13:18.637Z,18.50
2019-02-07T23:15:48.306Z,18.70
2019-02-07T23:18:18.067Z,18.07
2019-02-07T23:20:47.813Z,19.13
2019-02-07T23:23:17.421Z,18.73
2019-02-07T23:25:46.948Z,18.47
2019-02-07T23:28:16.632Z,19.03
2019-02-07T23:30:46.497Z,18.60
2019-02-07T23:33:16.319Z,17.50
2019-02-07T23:35:45.963Z,19.50
2019-02-07T23:38:15.533Z,18.73
2019-02-07T23:40:45.339Z,19.50
2019-02-07T23:43:15.082Z,19.53
2019-02-07T23:45:44.729Z,17.90
2019-02-07T23:48:14.432Z,18.23
2019-02-07T23:50:44.190Z,18.90
2019-02-07T23:53:15.424Z,17.87
2019-02-07T23:55:45.572Z,18.37
2019-02-07T23:58:15.319Z,18.97
